sensor_id;sensor_type;location;lat;lon;timestamp;P1;durP1;ratioP1;P2;durP2;ratioP2
54947;SDS011;41113;41.882;12.530;2022-12-18T00:02:04;22.38;;;14.30;;
54947;SDS011;41113;41.882;12.530;2022-12-18T00:04:30;21.63;;;14.05;;
54947;SDS011;41113;41.882;12.530;2022-12-18T00:06:55;21.92;;;14.68;;
54947;SDS011;41113;41.882;12.530;2022-12-18T00:09:21;26.48;;;14.70;;
54947;SDS011;41113;41.882;12.530;2022-12-18T00:11:46;25.70;;;15.18;;
54947;SDS011;41113;41.882;12.530;2022-12-18T00:14:12;22.60;;;13.80;;
54947;SDS011;41113;41.882;12.530;2022-12-18T00:16:39;26.75;;;15.40;;
54947;SDS011;41113;41.882;12.530;2022-12-18T00:19:05;21.95;;;15.00;;
54947;SDS011;41113;41.882;12.530;2022-12-18T00:21:32;23.08;;;14.40;;
54947;SDS011;41113;41.882;12.530;2022-12-18T00:23:59;27.85;;;15.25;;
54947;SDS011;41113;41.882;12.530;2022-12-18T00:26:25;26.40;;;14.20;;
54947;SDS011;41113;41.882;12.530;2022-12-18T00:28:53;25.60;;;15.07;;
54947;SDS011;41113;41.882;12.530;2022-12-18T00:31:19;22.65;;;14.45;;
54947;SDS011;41113;41.882;12.530;2022-12-18T00:33:47;22.40;;;15.05;;
54947;SDS011;41113;41.882;12.530;2022-12-18T00:36:15;22.60;;;13.52;;
54947;SDS011;41113;41.882;12.530;2022-12-18T00:38:42;22.02;;;13.18;;
54947;SDS011;41113;41.882;12.530;2022-12-18T00:41:09;22.17;;;14.05;;
54947;SDS011;41113;41.882;12.530;2022-12-18T00:43:36;21.75;;;15.00;;
54947;SDS011;41113;41.882;12.530;2022-12-18T00:46:02;25.60;;;16.40;;
54947;SDS011;41113;41.882;12.530;2022-12-18T00:48:28;27.27;;;15.23;;
54947;SDS011;41113;41.882;12.530;2022-12-18T00:50:54;25.17;;;15.38;;
54947;SDS011;41113;41.882;12.530;2022-12-18T00:53:19;25.67;;;15.43;;
54947;SDS011;41113;41.882;12.530;2022-12-18T00:55:45;25.75;;;15.63;;
54947;SDS011;41113;41.882;12.530;2022-12-18T00:58:11;27.73;;;16.90;;
54947;SDS011;41113;41.882;12.530;2022-12-18T01:00:38;23.67;;;14.85;;
54947;SDS011;41113;41.882;12.530;2022-12-18T01:03:04;24.58;;;15.63;;
54947;SDS011;41113;41.882;12.530;2022-12-18T01:05:30;24.38;;;15.10;;
54947;SDS011;41113;41.882;12.530;2022-12-18T01:07:56;24.80;;;15.18;;
54947;SDS011;41113;41.882;12.530;2022-12-18T01:10:22;23.92;;;14.35;;
54947;SDS011;41113;41.882;12.530;2022-12-18T01:12:48;24.30;;;14.52;;
54947;SDS011;41113;41.882;12.530;2022-12-18T01:15:14;23.17;;;14.05;;
54947;SDS011;41113;41.882;12.530;2022-12-18T01:17:41;26.23;;;15.82;;
54947;SDS011;41113;41.882;12.530;2022-12-18T01:20:07;26.65;;;15.10;;
54947;SDS011;41113;41.882;12.530;2022-12-18T01:22:33;20.35;;;13.80;;
54947;SDS011;41113;41.882;12.530;2022-12-18T01:25:00;24.83;;;15.40;;
54947;SDS011;41113;41.882;12.530;2022-12-18T01:27:25;22.35;;;14.82;;
54947;SDS011;41113;41.882;12.530;2022-12-18T01:29:51;23.30;;;15.63;;
54947;SDS011;41113;41.882;12.530;2022-12-18T01:32:16;29.10;;;17.50;;
54947;SDS011;41113;41.882;12.530;2022-12-18T01:34:41;29.98;;;20.00;;
54947;SDS011;41113;41.882;12.530;2022-12-18T01:37:07;28.90;;;18.42;;
54947;SDS011;41113;41.882;12.530;2022-12-18T01:39:32;33.35;;;19.00;;
54947;SDS011;41113;41.882;12.530;2022-12-18T01:42:19;30.85;;;19.65;;
54947;SDS011;41113;41.882;12.530;2022-12-18T01:47:26;31.75;;;19.67;;
54947;SDS011;41113;41.882;12.530;2022-12-18T01:49:59;32.65;;;19.33;;
54947;SDS011;41113;41.882;12.530;2022-12-18T01:52:33;27.95;;;18.65;;
54947;SDS011;41113;41.882;12.530;2022-12-18T01:55:00;27.63;;;17.73;;
54947;SDS011;41113;41.882;12.530;2022-12-18T01:57:28;27.83;;;17.38;;
54947;SDS011;41113;41.882;12.530;2022-12-18T01:59:54;28.38;;;18.75;;
54947;SDS011;41113;41.882;12.530;2022-12-18T02:02:26;27.77;;;18.42;;
54947;SDS011;41113;41.882;12.530;2022-12-18T02:04:53;28.77;;;19.27;;
54947;SDS011;41113;41.882;12.530;2022-12-18T02:10:30;28.23;;;18.08;;
54947;SDS011;41113;41.882;12.530;2022-12-18T02:15:44;27.38;;;18.77;;
54947;SDS011;41113;41.882;12.530;2022-12-18T02:18:18;28.40;;;19.27;;
54947;SDS011;41113;41.882;12.530;2022-12-18T02:20:49;28.02;;;18.15;;
54947;SDS011;41113;41.882;12.530;2022-12-18T02:26:15;28.60;;;18.55;;
54947;SDS011;41113;41.882;12.530;2022-12-18T02:31:25;27.67;;;17.92;;
54947;SDS011;41113;41.882;12.530;2022-12-18T02:36:21;29.08;;;18.55;;
54947;SDS011;41113;41.882;12.530;2022-12-18T02:38:48;35.90;;;20.33;;
54947;SDS011;41113;41.882;12.530;2022-12-18T02:41:16;30.85;;;18.88;;
54947;SDS011;41113;41.882;12.530;2022-12-18T02:43:46;28.83;;;18.85;;
54947;SDS011;41113;41.882;12.530;2022-12-18T02:51:55;28.50;;;16.98;;
54947;SDS011;41113;41.882;12.530;2022-12-18T02:54:39;30.75;;;18.65;;
54947;SDS011;41113;41.882;12.530;2022-12-18T02:57:16;29.48;;;17.42;;
54947;SDS011;41113;41.882;12.530;2022-12-18T02:59:55;28.65;;;17.38;;
54947;SDS011;41113;41.882;12.530;2022-12-18T03:05:30;28.63;;;17.50;;
54947;SDS011;41113;41.882;12.530;2022-12-18T03:08:03;27.83;;;17.40;;
54947;SDS011;41113;41.882;12.530;2022-12-18T03:10:34;30.50;;;18.05;;
54947;SDS011;41113;41.882;12.530;2022-12-18T03:13:06;30.17;;;17.70;;
54947;SDS011;41113;41.882;12.530;2022-12-18T03:15:42;29.63;;;16.92;;
54947;SDS011;41113;41.882;12.530;2022-12-18T03:21:02;28.00;;;17.60;;
54947;SDS011;41113;41.882;12.530;2022-12-18T03:23:32;25.30;;;16.27;;
54947;SDS011;41113;41.882;12.530;2022-12-18T03:26:04;26.90;;;16.92;;
54947;SDS011;41113;41.882;12.530;2022-12-18T03:28:33;28.10;;;17.08;;
54947;SDS011;41113;41.882;12.530;2022-12-18T03:31:03;31.45;;;17.17;;
54947;SDS011;41113;41.882;12.530;2022-12-18T03:33:31;23.65;;;16.08;;
54947;SDS011;41113;41.882;12.530;2022-12-18T03:36:03;26.90;;;17.02;;
54947;SDS011;41113;41.882;12.530;2022-12-18T03:38:29;24.55;;;16.80;;
54947;SDS011;41113;41.882;12.530;2022-12-18T03:43:43;29.20;;;16.73;;
54947;SDS011;41113;41.882;12.530;2022-12-18T03:46:15;24.48;;;16.13;;
54947;SDS011;41113;41.882;12.530;2022-12-18T03:48:51;23.95;;;16.60;;
54947;SDS011;41113;41.882;12.530;2022-12-18T03:51:32;24.08;;;15.65;;
54947;SDS011;41113;41.882;12.530;2022-12-18T03:54:06;24.75;;;16.38;;
54947;SDS011;41113;41.882;12.530;2022-12-18T03:56:35;29.48;;;17.98;;
54947;SDS011;41113;41.882;12.530;2022-12-18T03:59:04;26.40;;;17.40;;
54947;SDS011;41113;41.882;12.530;2022-12-18T04:01:32;26.48;;;16.80;;
54947;SDS011;41113;41.882;12.530;2022-12-18T04:04:00;28.23;;;17.95;;
54947;SDS011;41113;41.882;12.530;2022-12-18T04:06:28;27.70;;;18.63;;
54947;SDS011;41113;41.882;12.530;2022-12-18T04:08:54;29.17;;;19.00;;
54947;SDS011;41113;41.882;12.530;2022-12-18T04:11:21;28.80;;;17.45;;
54947;SDS011;41113;41.882;12.530;2022-12-18T04:13:47;26.55;;;16.92;;
54947;SDS011;41113;41.882;12.530;2022-12-18T04:16:12;24.88;;;17.25;;
54947;SDS011;41113;41.882;12.530;2022-12-18T04:18:38;30.48;;;18.02;;
54947;SDS011;41113;41.882;12.530;2022-12-18T04:21:03;25.67;;;16.67;;
54947;SDS011;41113;41.882;12.530;2022-12-18T04:23:29;27.95;;;16.15;;
54947;SDS011;41113;41.882;12.530;2022-12-18T04:25:54;26.70;;;16.58;;
54947;SDS011;41113;41.882;12.530;2022-12-18T04:28:20;24.88;;;16.25;;
54947;SDS011;41113;41.882;12.530;2022-12-18T04:30:45;28.38;;;17.70;;
54947;SDS011;41113;41.882;12.530;2022-12-18T04:33:11;22.95;;;14.98;;
54947;SDS011;41113;41.882;12.530;2022-12-18T04:35:38;25.35;;;16.23;;
54947;SDS011;41113;41.882;12.530;2022-12-18T04:38:08;21.27;;;15.15;;
54947;SDS011;41113;41.882;12.530;2022-12-18T04:40:35;23.52;;;15.48;;
54947;SDS011;41113;41.882;12.530;2022-12-18T04:43:01;25.40;;;15.90;;
54947;SDS011;41113;41.882;12.530;2022-12-18T04:45:27;24.63;;;15.77;;
54947;SDS011;41113;41.882;12.530;2022-12-18T04:47:52;24.38;;;16.25;;
54947;SDS011;41113;41.882;12.530;2022-12-18T04:50:18;25.63;;;16.75;;
54947;SDS011;41113;41.882;12.530;2022-12-18T04:52:43;22.83;;;14.73;;
54947;SDS011;41113;41.882;12.530;2022-12-18T04:55:09;22.20;;;13.75;;
54947;SDS011;41113;41.882;12.530;2022-12-18T04:57:34;23.42;;;15.13;;
54947;SDS011;41113;41.882;12.530;2022-12-18T05:00:00;21.48;;;13.43;;
54947;SDS011;41113;41.882;12.530;2022-12-18T05:02:25;23.45;;;14.35;;
54947;SDS011;41113;41.882;12.530;2022-12-18T05:04:51;24.80;;;15.38;;
54947;SDS011;41113;41.882;12.530;2022-12-18T05:07:16;20.50;;;13.02;;
54947;SDS011;41113;41.882;12.530;2022-12-18T05:09:41;19.13;;;12.18;;
54947;SDS011;41113;41.882;12.530;2022-12-18T05:12:07;22.08;;;12.35;;
54947;SDS011;41113;41.882;12.530;2022-12-18T05:14:32;21.23;;;13.07;;
54947;SDS011;41113;41.882;12.530;2022-12-18T05:16:57;19.33;;;12.35;;
54947;SDS011;41113;41.882;12.530;2022-12-18T05:19:23;22.02;;;11.90;;
54947;SDS011;41113;41.882;12.530;2022-12-18T05:21:48;20.80;;;12.52;;
54947;SDS011;41113;41.882;12.530;2022-12-18T05:24:14;20.60;;;12.20;;
54947;SDS011;41113;41.882;12.530;2022-12-18T05:26:39;22.30;;;12.98;;
54947;SDS011;41113;41.882;12.530;2022-12-18T05:29:04;20.35;;;12.75;;
54947;SDS011;41113;41.882;12.530;2022-12-18T05:31:30;20.40;;;12.95;;
54947;SDS011;41113;41.882;12.530;2022-12-18T05:33:55;21.98;;;12.95;;
54947;SDS011;41113;41.882;12.530;2022-12-18T05:36:21;19.20;;;11.90;;
54947;SDS011;41113;41.882;12.530;2022-12-18T05:38:46;18.52;;;10.75;;
54947;SDS011;41113;41.882;12.530;2022-12-18T05:41:11;22.50;;;13.05;;
54947;SDS011;41113;41.882;12.530;2022-12-18T05:43:37;18.65;;;12.13;;
54947;SDS011;41113;41.882;12.530;2022-12-18T05:46:05;17.80;;;11.30;;
54947;SDS011;41113;41.882;12.530;2022-12-18T05:48:32;19.70;;;12.00;;
54947;SDS011;41113;41.882;12.530;2022-12-18T05:51:02;19.48;;;12.23;;
54947;SDS011;41113;41.882;12.530;2022-12-18T05:53:29;19.10;;;11.80;;
54947;SDS011;41113;41.882;12.530;2022-12-18T05:55:58;17.17;;;11.05;;
54947;SDS011;41113;41.882;12.530;2022-12-18T05:58:25;21.02;;;12.27;;
54947;SDS011;41113;41.882;12.530;2022-12-18T06:00:50;20.35;;;11.30;;
54947;SDS011;41113;41.882;12.530;2022-12-18T06:03:16;19.17;;;11.32;;
54947;SDS011;41113;41.882;12.530;2022-12-18T06:05:42;18.48;;;11.57;;
54947;SDS011;41113;41.882;12.530;2022-12-18T06:08:09;18.00;;;10.75;;
54947;SDS011;41113;41.882;12.530;2022-12-18T06:10:35;20.02;;;12.30;;
54947;SDS011;41113;41.882;12.530;2022-12-18T06:13:01;19.42;;;11.82;;
54947;SDS011;41113;41.882;12.530;2022-12-18T06:15:27;17.48;;;10.52;;
54947;SDS011;41113;41.882;12.530;2022-12-18T06:17:52;16.33;;;9.55;;
54947;SDS011;41113;41.882;12.530;2022-12-18T06:20:18;16.80;;;9.40;;
54947;SDS011;41113;41.882;12.530;2022-12-18T06:22:44;15.57;;;9.02;;
54947;SDS011;41113;41.882;12.530;2022-12-18T06:25:09;15.82;;;9.40;;
54947;SDS011;41113;41.882;12.530;2022-12-18T06:27:35;19.45;;;9.95;;
54947;SDS011;41113;41.882;12.530;2022-12-18T06:30:00;15.40;;;9.07;;
54947;SDS011;41113;41.882;12.530;2022-12-18T06:32:26;19.83;;;9.57;;
54947;SDS011;41113;41.882;12.530;2022-12-18T06:34:51;19.48;;;10.27;;
54947;SDS011;41113;41.882;12.530;2022-12-18T06:37:18;17.58;;;9.80;;
54947;SDS011;41113;41.882;12.530;2022-12-18T06:39:44;15.63;;;9.00;;
54947;SDS011;41113;41.882;12.530;2022-12-18T06:42:09;15.25;;;8.73;;
54947;SDS011;41113;41.882;12.530;2022-12-18T06:44:34;17.40;;;9.32;;
54947;SDS011;41113;41.882;12.530;2022-12-18T06:47:00;18.50;;;8.23;;
54947;SDS011;41113;41.882;12.530;2022-12-18T06:49:25;16.98;;;8.27;;
54947;SDS011;41113;41.882;12.530;2022-12-18T06:51:51;15.52;;;8.45;;
54947;SDS011;41113;41.882;12.530;2022-12-18T06:54:16;17.13;;;8.07;;
54947;SDS011;41113;41.882;12.530;2022-12-18T06:56:42;17.00;;;9.07;;
54947;SDS011;41113;41.882;12.530;2022-12-18T06:59:09;16.88;;;9.55;;
54947;SDS011;41113;41.882;12.530;2022-12-18T07:01:35;15.60;;;8.32;;
54947;SDS011;41113;41.882;12.530;2022-12-18T07:04:00;16.92;;;8.57;;
54947;SDS011;41113;41.882;12.530;2022-12-18T07:06:26;14.70;;;8.63;;
54947;SDS011;41113;41.882;12.530;2022-12-18T07:08:52;15.65;;;8.75;;
54947;SDS011;41113;41.882;12.530;2022-12-18T07:11:19;14.63;;;7.43;;
54947;SDS011;41113;41.882;12.530;2022-12-18T07:13:45;17.67;;;8.55;;
54947;SDS011;41113;41.882;12.530;2022-12-18T07:16:12;14.25;;;7.60;;
54947;SDS011;41113;41.882;12.530;2022-12-18T07:18:42;13.75;;;7.25;;
54947;SDS011;41113;41.882;12.530;2022-12-18T07:21:08;15.35;;;7.88;;
54947;SDS011;41113;41.882;12.530;2022-12-18T07:23:36;13.48;;;7.05;;
54947;SDS011;41113;41.882;12.530;2022-12-18T07:26:03;15.93;;;7.43;;
54947;SDS011;41113;41.882;12.530;2022-12-18T07:28:29;12.77;;;7.30;;
54947;SDS011;41113;41.882;12.530;2022-12-18T07:30:55;16.63;;;7.43;;
54947;SDS011;41113;41.882;12.530;2022-12-18T07:33:20;15.18;;;8.05;;
54947;SDS011;41113;41.882;12.530;2022-12-18T07:35:45;14.07;;;7.90;;
54947;SDS011;41113;41.882;12.530;2022-12-18T07:38:11;15.25;;;7.65;;
54947;SDS011;41113;41.882;12.530;2022-12-18T07:40:36;16.05;;;9.10;;
54947;SDS011;41113;41.882;12.530;2022-12-18T07:43:01;18.73;;;9.27;;
54947;SDS011;41113;41.882;12.530;2022-12-18T07:45:30;19.00;;;9.40;;
54947;SDS011;41113;41.882;12.530;2022-12-18T07:47:55;20.10;;;9.05;;
54947;SDS011;41113;41.882;12.530;2022-12-18T07:50:20;18.65;;;9.80;;
54947;SDS011;41113;41.882;12.530;2022-12-18T07:52:46;18.42;;;9.32;;
54947;SDS011;41113;41.882;12.530;2022-12-18T07:55:11;17.67;;;9.90;;
54947;SDS011;41113;41.882;12.530;2022-12-18T07:57:37;18.38;;;9.80;;
54947;SDS011;41113;41.882;12.530;2022-12-18T08:00:03;18.00;;;9.80;;
54947;SDS011;41113;41.882;12.530;2022-12-18T08:02:30;17.05;;;9.57;;
54947;SDS011;41113;41.882;12.530;2022-12-18T08:04:56;16.88;;;9.15;;
54947;SDS011;41113;41.882;12.530;2022-12-18T08:07:21;18.63;;;9.73;;
54947;SDS011;41113;41.882;12.530;2022-12-18T08:09:47;22.63;;;9.63;;
54947;SDS011;41113;41.882;12.530;2022-12-18T08:12:12;19.25;;;10.38;;
54947;SDS011;41113;41.882;12.530;2022-12-18T08:14:37;20.13;;;9.65;;
54947;SDS011;41113;41.882;12.530;2022-12-18T08:17:03;20.58;;;12.00;;
54947;SDS011;41113;41.882;12.530;2022-12-18T08:19:28;17.35;;;9.90;;
54947;SDS011;41113;41.882;12.530;2022-12-18T08:21:53;20.02;;;9.88;;
54947;SDS011;41113;41.882;12.530;2022-12-18T08:24:19;16.08;;;9.05;;
54947;SDS011;41113;41.882;12.530;2022-12-18T08:26:45;16.80;;;9.10;;
54947;SDS011;41113;41.882;12.530;2022-12-18T08:29:10;19.15;;;9.30;;
54947;SDS011;41113;41.882;12.530;2022-12-18T08:31:36;18.17;;;9.63;;
54947;SDS011;41113;41.882;12.530;2022-12-18T08:34:01;16.48;;;8.50;;
54947;SDS011;41113;41.882;12.530;2022-12-18T08:36:27;17.30;;;9.35;;
54947;SDS011;41113;41.882;12.530;2022-12-18T08:38:52;17.40;;;9.60;;
54947;SDS011;41113;41.882;12.530;2022-12-18T08:41:18;19.83;;;9.82;;
54947;SDS011;41113;41.882;12.530;2022-12-18T08:43:44;16.50;;;8.85;;
54947;SDS011;41113;41.882;12.530;2022-12-18T08:46:32;16.15;;;8.95;;
54947;SDS011;41113;41.882;12.530;2022-12-18T08:49:03;17.05;;;8.95;;
54947;SDS011;41113;41.882;12.530;2022-12-18T08:51:29;16.05;;;8.43;;
54947;SDS011;41113;41.882;12.530;2022-12-18T08:53:54;20.67;;;11.00;;
54947;SDS011;41113;41.882;12.530;2022-12-18T08:56:20;17.98;;;9.90;;
54947;SDS011;41113;41.882;12.530;2022-12-18T08:58:45;14.75;;;8.85;;
54947;SDS011;41113;41.882;12.530;2022-12-18T09:01:11;14.55;;;7.78;;
54947;SDS011;41113;41.882;12.530;2022-12-18T09:03:37;18.05;;;8.85;;
54947;SDS011;41113;41.882;12.530;2022-12-18T09:06:03;18.17;;;7.93;;
54947;SDS011;41113;41.882;12.530;2022-12-18T09:08:29;18.30;;;7.90;;
54947;SDS011;41113;41.882;12.530;2022-12-18T09:10:55;19.10;;;8.07;;
54947;SDS011;41113;41.882;12.530;2022-12-18T09:13:21;15.73;;;8.13;;
54947;SDS011;41113;41.882;12.530;2022-12-18T09:15:48;16.73;;;8.30;;
54947;SDS011;41113;41.882;12.530;2022-12-18T09:18:16;14.93;;;8.52;;
54947;SDS011;41113;41.882;12.530;2022-12-18T09:20:43;13.82;;;7.55;;
54947;SDS011;41113;41.882;12.530;2022-12-18T09:23:09;14.88;;;7.32;;
54947;SDS011;41113;41.882;12.530;2022-12-18T09:25:34;13.32;;;7.07;;
54947;SDS011;41113;41.882;12.530;2022-12-18T09:28:03;13.27;;;7.50;;
54947;SDS011;41113;41.882;12.530;2022-12-18T09:30:31;19.85;;;7.97;;
54947;SDS011;41113;41.882;12.530;2022-12-18T09:33:00;13.47;;;6.93;;
54947;SDS011;41113;41.882;12.530;2022-12-18T09:35:25;16.27;;;7.90;;
54947;SDS011;41113;41.882;12.530;2022-12-18T09:37:53;12.30;;;6.88;;
54947;SDS011;41113;41.882;12.530;2022-12-18T09:40:19;12.00;;;6.03;;
54947;SDS011;41113;41.882;12.530;2022-12-18T09:42:51;14.23;;;5.80;;
54947;SDS011;41113;41.882;12.530;2022-12-18T09:45:20;12.10;;;5.28;;
54947;SDS011;41113;41.882;12.530;2022-12-18T09:47:46;11.88;;;4.90;;
54947;SDS011;41113;41.882;12.530;2022-12-18T09:53:02;10.00;;;5.00;;
54947;SDS011;41113;41.882;12.530;2022-12-18T09:55:39;12.23;;;5.68;;
54947;SDS011;41113;41.882;12.530;2022-12-18T10:00:39;12.85;;;5.13;;
54947;SDS011;41113;41.882;12.530;2022-12-18T10:03:11;12.52;;;5.35;;
54947;SDS011;41113;41.882;12.530;2022-12-18T10:13:46;12.57;;;5.85;;
54947;SDS011;41113;41.882;12.530;2022-12-18T10:16:19;12.80;;;6.00;;
54947;SDS011;41113;41.882;12.530;2022-12-18T10:22:08;14.13;;;5.38;;
54947;SDS011;41113;41.882;12.530;2022-12-18T10:25:04;10.05;;;4.93;;
54947;SDS011;41113;41.882;12.530;2022-12-18T10:27:39;10.95;;;5.10;;
54947;SDS011;41113;41.882;12.530;2022-12-18T10:30:12;10.63;;;5.28;;
54947;SDS011;41113;41.882;12.530;2022-12-18T10:32:46;13.90;;;6.30;;
54947;SDS011;41113;41.882;12.530;2022-12-18T10:35:18;12.27;;;5.25;;
54947;SDS011;41113;41.882;12.530;2022-12-18T10:37:59;12.73;;;5.25;;
54947;SDS011;41113;41.882;12.530;2022-12-18T10:43:37;10.80;;;4.70;;
54947;SDS011;41113;41.882;12.530;2022-12-18T10:48:38;9.90;;;4.25;;
54947;SDS011;41113;41.882;12.530;2022-12-18T10:54:06;13.90;;;4.30;;
54947;SDS011;41113;41.882;12.530;2022-12-18T10:56:42;10.82;;;4.15;;
54947;SDS011;41113;41.882;12.530;2022-12-18T10:59:08;9.40;;;4.03;;
54947;SDS011;41113;41.882;12.530;2022-12-18T11:04:23;9.60;;;3.70;;
54947;SDS011;41113;41.882;12.530;2022-12-18T11:07:00;9.35;;;3.42;;
54947;SDS011;41113;41.882;12.530;2022-12-18T11:09:29;10.38;;;3.55;;
54947;SDS011;41113;41.882;12.530;2022-12-18T11:12:00;9.87;;;3.40;;
54947;SDS011;41113;41.882;12.530;2022-12-18T11:15:01;9.27;;;3.85;;
54947;SDS011;41113;41.882;12.530;2022-12-18T11:19:54;10.45;;;3.67;;
54947;SDS011;41113;41.882;12.530;2022-12-18T11:22:31;8.65;;;3.58;;
54947;SDS011;41113;41.882;12.530;2022-12-18T11:25:00;10.68;;;3.70;;
54947;SDS011;41113;41.882;12.530;2022-12-18T11:27:29;9.13;;;3.88;;
54947;SDS011;41113;41.882;12.530;2022-12-18T11:30:07;10.50;;;3.75;;
54947;SDS011;41113;41.882;12.530;2022-12-18T11:32:35;10.02;;;4.18;;
54947;SDS011;41113;41.882;12.530;2022-12-18T11:35:15;9.68;;;3.50;;
54947;SDS011;41113;41.882;12.530;2022-12-18T11:37:49;8.43;;;3.20;;
54947;SDS011;41113;41.882;12.530;2022-12-18T11:40:20;8.93;;;3.13;;
54947;SDS011;41113;41.882;12.530;2022-12-18T11:42:59;9.30;;;3.45;;
54947;SDS011;41113;41.882;12.530;2022-12-18T11:45:34;8.77;;;3.45;;
54947;SDS011;41113;41.882;12.530;2022-12-18T11:48:13;7.82;;;3.13;;
54947;SDS011;41113;41.882;12.530;2022-12-18T11:50:52;8.18;;;3.40;;
54947;SDS011;41113;41.882;12.530;2022-12-18T11:53:20;8.02;;;3.00;;
54947;SDS011;41113;41.882;12.530;2022-12-18T11:55:56;10.88;;;3.70;;
54947;SDS011;41113;41.882;12.530;2022-12-18T12:01:09;10.50;;;4.30;;
54947;SDS011;41113;41.882;12.530;2022-12-18T12:07:01;10.27;;;3.67;;
54947;SDS011;41113;41.882;12.530;2022-12-18T12:17:50;8.70;;;3.10;;
54947;SDS011;41113;41.882;12.530;2022-12-18T12:20:47;7.28;;;2.70;;
54947;SDS011;41113;41.882;12.530;2022-12-18T12:37:37;15.00;;;8.15;;
54947;SDS011;41113;41.882;12.530;2022-12-18T12:40:04;38.85;;;25.30;;
54947;SDS011;41113;41.882;12.530;2022-12-18T12:43:05;15.70;;;9.75;;
54947;SDS011;41113;41.882;12.530;2022-12-18T12:46:20;13.63;;;6.70;;
54947;SDS011;41113;41.882;12.530;2022-12-18T12:51:13;12.75;;;4.82;;
54947;SDS011;41113;41.882;12.530;2022-12-18T12:53:40;10.90;;;3.92;;
54947;SDS011;41113;41.882;12.530;2022-12-18T12:56:06;10.20;;;3.60;;
54947;SDS011;41113;41.882;12.530;2022-12-18T12:58:36;10.07;;;3.33;;
54947;SDS011;41113;41.882;12.530;2022-12-18T13:07:00;8.05;;;2.42;;
54947;SDS011;41113;41.882;12.530;2022-12-18T13:09:32;8.25;;;2.67;;
54947;SDS011;41113;41.882;12.530;2022-12-18T13:12:12;8.13;;;2.90;;
54947;SDS011;41113;41.882;12.530;2022-12-18T13:15:11;7.82;;;2.65;;
54947;SDS011;41113;41.882;12.530;2022-12-18T13:17:45;7.47;;;2.53;;
54947;SDS011;41113;41.882;12.530;2022-12-18T13:20:11;7.72;;;2.90;;
54947;SDS011;41113;41.882;12.530;2022-12-18T13:22:44;8.45;;;2.75;;
54947;SDS011;41113;41.882;12.530;2022-12-18T13:30:50;10.20;;;3.75;;
54947;SDS011;41113;41.882;12.530;2022-12-18T13:35:53;9.50;;;3.00;;
54947;SDS011;41113;41.882;12.530;2022-12-18T13:40:57;8.00;;;2.70;;
54947;SDS011;41113;41.882;12.530;2022-12-18T13:43:27;7.05;;;2.45;;
54947;SDS011;41113;41.882;12.530;2022-12-18T13:46:29;9.27;;;2.55;;
54947;SDS011;41113;41.882;12.530;2022-12-18T13:49:18;8.73;;;2.47;;
54947;SDS011;41113;41.882;12.530;2022-12-18T13:51:48;7.40;;;2.08;;
54947;SDS011;41113;41.882;12.530;2022-12-18T13:56:58;9.40;;;2.30;;
54947;SDS011;41113;41.882;12.530;2022-12-18T13:59:25;6.70;;;2.28;;
54947;SDS011;41113;41.882;12.530;2022-12-18T14:01:55;8.55;;;2.40;;
54947;SDS011;41113;41.882;12.530;2022-12-18T14:06:56;8.25;;;2.50;;
54947;SDS011;41113;41.882;12.530;2022-12-18T14:09:28;9.13;;;2.92;;
54947;SDS011;41113;41.882;12.530;2022-12-18T14:12:24;6.53;;;2.10;;
54947;SDS011;41113;41.882;12.530;2022-12-18T14:17:52;8.07;;;2.50;;
54947;SDS011;41113;41.882;12.530;2022-12-18T14:20:20;7.65;;;2.20;;
54947;SDS011;41113;41.882;12.530;2022-12-18T14:22:46;7.75;;;2.42;;
54947;SDS011;41113;41.882;12.530;2022-12-18T14:25:18;11.40;;;2.40;;
54947;SDS011;41113;41.882;12.530;2022-12-18T14:27:47;5.63;;;2.15;;
54947;SDS011;41113;41.882;12.530;2022-12-18T14:33:00;7.78;;;2.65;;
54947;SDS011;41113;41.882;12.530;2022-12-18T14:35:59;9.05;;;2.53;;
54947;SDS011;41113;41.882;12.530;2022-12-18T14:43:32;5.75;;;2.10;;
54947;SDS011;41113;41.882;12.530;2022-12-18T14:46:00;7.75;;;2.55;;
54947;SDS011;41113;41.882;12.530;2022-12-18T14:48:33;7.10;;;2.10;;
54947;SDS011;41113;41.882;12.530;2022-12-18T14:51:02;7.97;;;2.53;;
54947;SDS011;41113;41.882;12.530;2022-12-18T14:53:39;18.15;;;7.30;;
54947;SDS011;41113;41.882;12.530;2022-12-18T14:56:13;18.67;;;6.53;;
54947;SDS011;41113;41.882;12.530;2022-12-18T14:58:53;14.63;;;6.57;;
54947;SDS011;41113;41.882;12.530;2022-12-18T15:01:24;14.45;;;6.60;;
54947;SDS011;41113;41.882;12.530;2022-12-18T15:03:52;14.48;;;5.60;;
54947;SDS011;41113;41.882;12.530;2022-12-18T15:06:35;13.85;;;4.93;;
54947;SDS011;41113;41.882;12.530;2022-12-18T15:09:04;12.43;;;4.28;;
54947;SDS011;41113;41.882;12.530;2022-12-18T15:11:45;9.43;;;3.72;;
54947;SDS011;41113;41.882;12.530;2022-12-18T15:16:55;9.60;;;3.13;;
54947;SDS011;41113;41.882;12.530;2022-12-18T15:19:25;9.00;;;3.05;;
54947;SDS011;41113;41.882;12.530;2022-12-18T15:22:04;11.00;;;2.72;;
54947;SDS011;41113;41.882;12.530;2022-12-18T15:24:42;6.85;;;2.53;;
54947;SDS011;41113;41.882;12.530;2022-12-18T15:27:18;10.05;;;3.08;;
54947;SDS011;41113;41.882;12.530;2022-12-18T15:30:02;9.60;;;3.10;;
54947;SDS011;41113;41.882;12.530;2022-12-18T15:32:38;7.90;;;2.80;;
54947;SDS011;41113;41.882;12.530;2022-12-18T15:37:36;11.00;;;3.97;;
54947;SDS011;41113;41.882;12.530;2022-12-18T15:40:05;9.93;;;3.28;;
54947;SDS011;41113;41.882;12.530;2022-12-18T15:42:32;7.60;;;3.00;;
54947;SDS011;41113;41.882;12.530;2022-12-18T15:45:16;8.75;;;2.85;;
54947;SDS011;41113;41.882;12.530;2022-12-18T15:47:41;11.45;;;3.38;;
54947;SDS011;41113;41.882;12.530;2022-12-18T15:50:07;10.20;;;3.08;;
54947;SDS011;41113;41.882;12.530;2022-12-18T15:52:36;10.50;;;3.50;;
54947;SDS011;41113;41.882;12.530;2022-12-18T15:55:09;9.85;;;3.80;;
54947;SDS011;41113;41.882;12.530;2022-12-18T15:57:55;11.23;;;3.40;;
54947;SDS011;41113;41.882;12.530;2022-12-18T16:00:20;15.40;;;5.65;;
54947;SDS011;41113;41.882;12.530;2022-12-18T16:02:46;24.27;;;8.85;;
54947;SDS011;41113;41.882;12.530;2022-12-18T16:05:13;19.70;;;8.05;;
54947;SDS011;41113;41.882;12.530;2022-12-18T16:07:41;15.32;;;6.50;;
54947;SDS011;41113;41.882;12.530;2022-12-18T16:10:07;18.85;;;6.57;;
54947;SDS011;41113;41.882;12.530;2022-12-18T16:12:33;14.98;;;5.68;;
54947;SDS011;41113;41.882;12.530;2022-12-18T16:14:58;17.63;;;6.10;;
54947;SDS011;41113;41.882;12.530;2022-12-18T16:17:24;63.58;;;35.00;;
54947;SDS011;41113;41.882;12.530;2022-12-18T16:19:49;287.60;;;148.63;;
54947;SDS011;41113;41.882;12.530;2022-12-18T16:22:19;537.97;;;290.10;;
54947;SDS011;41113;41.882;12.530;2022-12-18T16:24:50;186.70;;;103.05;;
54947;SDS011;41113;41.882;12.530;2022-12-18T16:27:16;222.98;;;118.07;;
54947;SDS011;41113;41.882;12.530;2022-12-18T16:29:42;186.45;;;100.60;;
54947;SDS011;41113;41.882;12.530;2022-12-18T16:32:08;203.52;;;108.68;;
54947;SDS011;41113;41.882;12.530;2022-12-18T16:34:38;138.57;;;78.88;;
54947;SDS011;41113;41.882;12.530;2022-12-18T16:37:05;168.98;;;106.63;;
54947;SDS011;41113;41.882;12.530;2022-12-18T16:39:32;95.32;;;57.85;;
54947;SDS011;41113;41.882;12.530;2022-12-18T16:41:59;451.70;;;276.73;;